sensor_id;sensor_type;location;lat;lon;timestamp;temperature;humidity
15596;DHT22;7898;48.658;9.068;2022-10-17T00:00:10;11.30;99.90
15596;DHT22;7898;48.658;9.068;2022-10-17T00:02:37;11.30;99.90
15596;DHT22;7898;48.658;9.068;2022-10-17T00:05:05;11.30;99.90
15596;DHT22;7898;48.658;9.068;2022-10-17T00:07:32;11.30;99.90
15596;DHT22;7898;48.658;9.068;2022-10-17T00:10:00;11.30;99.90
15596;DHT22;7898;48.658;9.068;2022-10-17T00:12:33;11.30;99.90
15596;DHT22;7898;48.658;9.068;2022-10-17T00:15:02;11.20;99.90
15596;DHT22;7898;48.658;9.068;2022-10-17T00:17:29;11.30;99.90
15596;DHT22;7898;48.658;9.068;2022-10-17T00:19:57;11.30;99.90
15596;DHT22;7898;48.658;9.068;2022-10-17T00:22:28;11.30;99.90
15596;DHT22;7898;48.658;9.068;2022-10-17T00:24:55;11.30;99.90
15596;DHT22;7898;48.658;9.068;2022-10-17T00:27:26;11.40;99.90
15596;DHT22;7898;48.658;9.068;2022-10-17T00:29:53;11.40;99.90
15596;DHT22;7898;48.658;9.068;2022-10-17T00:32:20;11.30;99.90
15596;DHT22;7898;48.658;9.068;2022-10-17T00:34:47;11.30;99.90
15596;DHT22;7898;48.658;9.068;2022-10-17T00:37:14;11.20;99.90
15596;DHT22;7898;48.658;9.068;2022-10-17T00:39:41;11.00;99.90
15596;DHT22;7898;48.658;9.068;2022-10-17T00:42:10;11.90;99.90
15596;DHT22;7898;48.658;9.068;2022-10-17T00:45:06;11.00;99.90
15596;DHT22;7898;48.658;9.068;2022-10-17T00:47:34;11.00;99.90
15596;DHT22;7898;48.658;9.068;2022-10-17T00:50:02;11.00;99.90
15596;DHT22;7898;48.658;9.068;2022-10-17T00:52:30;10.90;99.90
15596;DHT22;7898;48.658;9.068;2022-10-17T00:54:59;10.90;99.90
15596;DHT22;7898;48.658;9.068;2022-10-17T00:57:29;10.90;99.90
15596;DHT22;7898;48.658;9.068;2022-10-17T00:59:58;10.80;99.90
15596;DHT22;7898;48.658;9.068;2022-10-17T01:02:27;10.90;99.90
15596;DHT22;7898;48.658;9.068;2022-10-17T01:04:55;10.90;99.90
15596;DHT22;7898;48.658;9.068;2022-10-17T01:07:24;10.80;99.90
15596;DHT22;7898;48.658;9.068;2022-10-17T01:09:52;10.80;99.90
15596;DHT22;7898;48.658;9.068;2022-10-17T01:12:22;10.80;99.90
15596;DHT22;7898;48.658;9.068;2022-10-17T01:14:58;10.70;99.90
15596;DHT22;7898;48.658;9.068;2022-10-17T01:17:35;10.70;99.90
15596;DHT22;7898;48.658;9.068;2022-10-17T01:26:10;10.60;99.90
15596;DHT22;7898;48.658;9.068;2022-10-17T01:31:45;10.60;99.90
15596;DHT22;7898;48.658;9.068;2022-10-17T01:34:17;10.60;99.90
15596;DHT22;7898;48.658;9.068;2022-10-17T01:36:50;10.60;99.90
15596;DHT22;7898;48.658;9.068;2022-10-17T01:39:28;10.70;99.90
15596;DHT22;7898;48.658;9.068;2022-10-17T01:42:02;10.70;99.90
15596;DHT22;7898;48.658;9.068;2022-10-17T01:44:40;10.60;99.90
15596;DHT22;7898;48.658;9.068;2022-10-17T01:47:18;10.50;99.90
15596;DHT22;7898;48.658;9.068;2022-10-17T01:49:49;10.50;99.90
15596;DHT22;7898;48.658;9.068;2022-10-17T01:52:19;10.50;99.90
15596;DHT22;7898;48.658;9.068;2022-10-17T01:54:54;10.40;99.90
15596;DHT22;7898;48.658;9.068;2022-10-17T01:57:27;11.10;99.90
15596;DHT22;7898;48.658;9.068;2022-10-17T01:59:55;10.40;99.90
15596;DHT22;7898;48.658;9.068;2022-10-17T02:02:25;10.40;99.90
15596;DHT22;7898;48.658;9.068;2022-10-17T02:04:54;10.40;99.90
15596;DHT22;7898;48.658;9.068;2022-10-17T02:07:22;10.30;99.90
15596;DHT22;7898;48.658;9.068;2022-10-17T02:09:49;10.30;99.90
15596;DHT22;7898;48.658;9.068;2022-10-17T02:12:32;10.30;99.90
15596;DHT22;7898;48.658;9.068;2022-10-17T02:15:09;10.20;99.90
15596;DHT22;7898;48.658;9.068;2022-10-17T02:17:44;10.20;99.90
15596;DHT22;7898;48.658;9.068;2022-10-17T02:20:20;10.20;99.90
15596;DHT22;7898;48.658;9.068;2022-10-17T02:22:51;10.20;99.90
15596;DHT22;7898;48.658;9.068;2022-10-17T02:25:28;10.20;99.90
15596;DHT22;7898;48.658;9.068;2022-10-17T02:28:03;10.30;99.90
15596;DHT22;7898;48.658;9.068;2022-10-17T02:30:36;10.30;99.90
15596;DHT22;7898;48.658;9.068;2022-10-17T02:33:09;10.30;99.90
15596;DHT22;7898;48.658;9.068;2022-10-17T02:35:41;10.20;99.90
15596;DHT22;7898;48.658;9.068;2022-10-17T02:38:10;10.10;99.90
15596;DHT22;7898;48.658;9.068;2022-10-17T02:40:38;10.00;99.90
15596;DHT22;7898;48.658;9.068;2022-10-17T02:43:06;10.00;99.90
15596;DHT22;7898;48.658;9.068;2022-10-17T02:45:35;9.90;99.90
15596;DHT22;7898;48.658;9.068;2022-10-17T02:48:07;9.90;99.90
15596;DHT22;7898;48.658;9.068;2022-10-17T02:50:45;9.90;99.90
15596;DHT22;7898;48.658;9.068;2022-10-17T02:53:19;9.80;99.90
15596;DHT22;7898;48.658;9.068;2022-10-17T02:55:52;9.80;99.90
15596;DHT22;7898;48.658;9.068;2022-10-17T02:58:22;9.90;99.90
15596;DHT22;7898;48.658;9.068;2022-10-17T03:00:51;9.90;99.90
15596;DHT22;7898;48.658;9.068;2022-10-17T03:03:22;9.90;99.90
15596;DHT22;7898;48.658;9.068;2022-10-17T03:05:50;9.90;99.90
15596;DHT22;7898;48.658;9.068;2022-10-17T03:08:18;9.80;99.90
15596;DHT22;7898;48.658;9.068;2022-10-17T03:10:45;10.00;99.90
15596;DHT22;7898;48.658;9.068;2022-10-17T03:13:12;9.80;99.90
15596;DHT22;7898;48.658;9.068;2022-10-17T03:15:40;9.90;99.90
15596;DHT22;7898;48.658;9.068;2022-10-17T03:18:07;9.90;99.90
15596;DHT22;7898;48.658;9.068;2022-10-17T03:20:35;9.90;99.90
15596;DHT22;7898;48.658;9.068;2022-10-17T03:23:02;9.90;99.90
15596;DHT22;7898;48.658;9.068;2022-10-17T03:25:29;9.80;99.90
15596;DHT22;7898;48.658;9.068;2022-10-17T03:27:57;9.80;99.90
15596;DHT22;7898;48.658;9.068;2022-10-17T03:30:24;9.70;99.90
15596;DHT22;7898;48.658;9.068;2022-10-17T03:32:51;9.70;99.90
15596;DHT22;7898;48.658;9.068;2022-10-17T03:35:18;9.70;99.90
15596;DHT22;7898;48.658;9.068;2022-10-17T03:37:47;9.60;99.90
15596;DHT22;7898;48.658;9.068;2022-10-17T03:40:16;9.60;99.90
15596;DHT22;7898;48.658;9.068;2022-10-17T03:42:43;9.50;99.90
15596;DHT22;7898;48.658;9.068;2022-10-17T03:45:10;9.40;99.90
15596;DHT22;7898;48.658;9.068;2022-10-17T03:47:37;9.40;99.90
15596;DHT22;7898;48.658;9.068;2022-10-17T03:50:05;9.50;99.90
15596;DHT22;7898;48.658;9.068;2022-10-17T03:52:32;9.50;99.90
15596;DHT22;7898;48.658;9.068;2022-10-17T03:55:01;9.40;99.90
15596;DHT22;7898;48.658;9.068;2022-10-17T03:57:28;9.50;99.90
15596;DHT22;7898;48.658;9.068;2022-10-17T03:59:54;9.50;99.90
15596;DHT22;7898;48.658;9.068;2022-10-17T04:02:21;9.50;99.90
15596;DHT22;7898;48.658;9.068;2022-10-17T04:04:48;9.50;99.90
15596;DHT22;7898;48.658;9.068;2022-10-17T04:07:15;9.60;99.90
15596;DHT22;7898;48.658;9.068;2022-10-17T04:09:42;9.50;99.90
15596;DHT22;7898;48.658;9.068;2022-10-17T04:12:11;9.50;99.90
15596;DHT22;7898;48.658;9.068;2022-10-17T04:14:38;9.50;99.90
15596;DHT22;7898;48.658;9.068;2022-10-17T04:17:05;9.60;99.90
15596;DHT22;7898;48.658;9.068;2022-10-17T04:19:32;9.60;99.90
15596;DHT22;7898;48.658;9.068;2022-10-17T04:21:59;9.50;99.90
15596;DHT22;7898;48.658;9.068;2022-10-17T04:24:27;9.40;99.90
15596;DHT22;7898;48.658;9.068;2022-10-17T04:26:54;9.40;99.90
15596;DHT22;7898;48.658;9.068;2022-10-17T04:29:23;9.40;99.90
15596;DHT22;7898;48.658;9.068;2022-10-17T04:31:50;9.50;99.90
15596;DHT22;7898;48.658;9.068;2022-10-17T04:34:17;9.00;99.90
15596;DHT22;7898;48.658;9.068;2022-10-17T04:36:44;9.40;99.90
15596;DHT22;7898;48.658;9.068;2022-10-17T04:39:11;9.50;99.90
15596;DHT22;7898;48.658;9.068;2022-10-17T04:41:38;9.40;99.90
15596;DHT22;7898;48.658;9.068;2022-10-17T04:44:06;9.30;99.90
15596;DHT22;7898;48.658;9.068;2022-10-17T04:46:34;9.30;99.90
15596;DHT22;7898;48.658;9.068;2022-10-17T04:49:01;9.30;99.90
15596;DHT22;7898;48.658;9.068;2022-10-17T04:51:29;9.30;99.90
15596;DHT22;7898;48.658;9.068;2022-10-17T04:53:56;9.30;99.90
15596;DHT22;7898;48.658;9.068;2022-10-17T04:56:23;9.20;99.90
15596;DHT22;7898;48.658;9.068;2022-10-17T04:58:51;9.60;99.90
15596;DHT22;7898;48.658;9.068;2022-10-17T05:01:19;9.20;99.90
15596;DHT22;7898;48.658;9.068;2022-10-17T05:03:48;9.20;99.90
15596;DHT22;7898;48.658;9.068;2022-10-17T05:06:17;9.20;99.90
15596;DHT22;7898;48.658;9.068;2022-10-17T05:08:44;9.30;99.90
15596;DHT22;7898;48.658;9.068;2022-10-17T05:11:15;9.20;99.90
15596;DHT22;7898;48.658;9.068;2022-10-17T05:13:43;9.20;99.90
15596;DHT22;7898;48.658;9.068;2022-10-17T05:16:10;9.20;99.90
15596;DHT22;7898;48.658;9.068;2022-10-17T05:18:37;9.20;99.90
15596;DHT22;7898;48.658;9.068;2022-10-17T05:21:06;9.20;99.90
15596;DHT22;7898;48.658;9.068;2022-10-17T05:23:33;9.20;99.90
15596;DHT22;7898;48.658;9.068;2022-10-17T05:26:00;9.30;99.90
15596;DHT22;7898;48.658;9.068;2022-10-17T05:28:27;9.30;99.90
15596;DHT22;7898;48.658;9.068;2022-10-17T05:30:54;9.30;99.90
15596;DHT22;7898;48.658;9.068;2022-10-17T05:33:22;9.30;99.90
15596;DHT22;7898;48.658;9.068;2022-10-17T05:35:49;8.70;99.90
15596;DHT22;7898;48.658;9.068;2022-10-17T05:38:19;9.30;99.90
15596;DHT22;7898;48.658;9.068;2022-10-17T05:40:46;8.60;99.90
15596;DHT22;7898;48.658;9.068;2022-10-17T05:43:13;9.30;99.90
15596;DHT22;7898;48.658;9.068;2022-10-17T05:45:40;9.20;99.90
15596;DHT22;7898;48.658;9.068;2022-10-17T05:48:07;9.20;99.90
15596;DHT22;7898;48.658;9.068;2022-10-17T05:50:35;9.20;99.90
15596;DHT22;7898;48.658;9.068;2022-10-17T05:53:02;9.30;99.90
15596;DHT22;7898;48.658;9.068;2022-10-17T05:55:30;9.30;99.90
15596;DHT22;7898;48.658;9.068;2022-10-17T05:57:59;9.30;99.90
15596;DHT22;7898;48.658;9.068;2022-10-17T06:00:26;9.40;99.90
15596;DHT22;7898;48.658;9.068;2022-10-17T06:02:53;9.60;99.90
15596;DHT22;7898;48.658;9.068;2022-10-17T06:05:20;9.80;99.90
15596;DHT22;7898;48.658;9.068;2022-10-17T06:07:48;10.10;99.90
15596;DHT22;7898;48.658;9.068;2022-10-17T06:10:17;10.60;99.90
15596;DHT22;7898;48.658;9.068;2022-10-17T06:12:46;11.10;99.90
15596;DHT22;7898;48.658;9.068;2022-10-17T06:15:15;11.70;99.90
15596;DHT22;7898;48.658;9.068;2022-10-17T06:17:42;12.20;99.90
15596;DHT22;7898;48.658;9.068;2022-10-17T06:20:09;12.40;99.90
15596;DHT22;7898;48.658;9.068;2022-10-17T06:22:36;12.80;99.90
15596;DHT22;7898;48.658;9.068;2022-10-17T06:25:04;12.90;99.90
15596;DHT22;7898;48.658;9.068;2022-10-17T06:27:31;13.00;99.90
15596;DHT22;7898;48.658;9.068;2022-10-17T06:30:00;12.80;99.90
15596;DHT22;7898;48.658;9.068;2022-10-17T06:32:29;12.80;99.90
15596;DHT22;7898;48.658;9.068;2022-10-17T06:34:58;13.00;99.90
15596;DHT22;7898;48.658;9.068;2022-10-17T06:37:29;13.30;99.90
15596;DHT22;7898;48.658;9.068;2022-10-17T06:39:57;13.80;99.90
15596;DHT22;7898;48.658;9.068;2022-10-17T06:42:27;14.10;99.90
15596;DHT22;7898;48.658;9.068;2022-10-17T06:44:54;14.70;99.90
15596;DHT22;7898;48.658;9.068;2022-10-17T06:47:22;15.10;99.90
15596;DHT22;7898;48.658;9.068;2022-10-17T06:49:49;15.50;99.90
15596;DHT22;7898;48.658;9.068;2022-10-17T06:52:19;15.60;99.90
15596;DHT22;7898;48.658;9.068;2022-10-17T06:54:46;16.20;99.90
15596;DHT22;7898;48.658;9.068;2022-10-17T06:57:13;16.30;99.90
15596;DHT22;7898;48.658;9.068;2022-10-17T06:59:40;16.60;99.90
15596;DHT22;7898;48.658;9.068;2022-10-17T07:02:08;17.00;99.90
15596;DHT22;7898;48.658;9.068;2022-10-17T07:04:38;17.40;99.90
15596;DHT22;7898;48.658;9.068;2022-10-17T07:07:05;17.70;99.90
15596;DHT22;7898;48.658;9.068;2022-10-17T07:09:33;18.00;99.90
15596;DHT22;7898;48.658;9.068;2022-10-17T07:12:00;18.20;99.90
15596;DHT22;7898;48.658;9.068;2022-10-17T07:14:27;18.60;99.90
15596;DHT22;7898;48.658;9.068;2022-10-17T07:16:56;18.90;99.90
15596;DHT22;7898;48.658;9.068;2022-10-17T07:19:26;19.20;99.90
15596;DHT22;7898;48.658;9.068;2022-10-17T07:21:55;19.30;99.90
15596;DHT22;7898;48.658;9.068;2022-10-17T07:24:22;19.40;99.90
15596;DHT22;7898;48.658;9.068;2022-10-17T07:26:49;19.20;99.90
15596;DHT22;7898;48.658;9.068;2022-10-17T07:29:16;19.30;99.90
15596;DHT22;7898;48.658;9.068;2022-10-17T07:31:43;19.70;99.90
15596;DHT22;7898;48.658;9.068;2022-10-17T07:34:13;20.40;99.90
15596;DHT22;7898;48.658;9.068;2022-10-17T07:36:40;20.80;99.90
15596;DHT22;7898;48.658;9.068;2022-10-17T07:39:11;21.10;99.90
15596;DHT22;7898;48.658;9.068;2022-10-17T07:41:38;21.30;99.90
15596;DHT22;7898;48.658;9.068;2022-10-17T07:44:05;21.20;99.90
15596;DHT22;7898;48.658;9.068;2022-10-17T07:46:32;21.00;99.90
15596;DHT22;7898;48.658;9.068;2022-10-17T07:48:59;21.00;99.90
15596;DHT22;7898;48.658;9.068;2022-10-17T07:51:26;21.30;99.90
15596;DHT22;7898;48.658;9.068;2022-10-17T07:53:53;22.30;99.90
15596;DHT22;7898;48.658;9.068;2022-10-17T07:56:22;22.50;99.90
15596;DHT22;7898;48.658;9.068;2022-10-17T07:58:49;22.10;99.90
15596;DHT22;7898;48.658;9.068;2022-10-17T08:01:16;21.70;99.90
15596;DHT22;7898;48.658;9.068;2022-10-17T08:03:44;21.60;99.90
15596;DHT22;7898;48.658;9.068;2022-10-17T08:06:12;21.80;99.90
15596;DHT22;7898;48.658;9.068;2022-10-17T08:08:40;22.20;99.90
15596;DHT22;7898;48.658;9.068;2022-10-17T08:11:08;22.40;99.90
15596;DHT22;7898;48.658;9.068;2022-10-17T08:13:37;21.80;99.90
15596;DHT22;7898;48.658;9.068;2022-10-17T08:16:07;22.00;99.90
15596;DHT22;7898;48.658;9.068;2022-10-17T08:18:39;22.00;99.90
15596;DHT22;7898;48.658;9.068;2022-10-17T08:21:06;22.20;99.90
15596;DHT22;7898;48.658;9.068;2022-10-17T08:23:34;22.70;99.90
15596;DHT22;7898;48.658;9.068;2022-10-17T08:26:03;22.90;99.90
15596;DHT22;7898;48.658;9.068;2022-10-17T08:28:32;23.20;99.90
15596;DHT22;7898;48.658;9.068;2022-10-17T08:31:07;23.80;99.90
15596;DHT22;7898;48.658;9.068;2022-10-17T08:33:34;23.90;99.90
15596;DHT22;7898;48.658;9.068;2022-10-17T08:36:02;23.70;99.90
15596;DHT22;7898;48.658;9.068;2022-10-17T08:38:30;23.40;99.90
15596;DHT22;7898;48.658;9.068;2022-10-17T08:41:00;23.80;99.90
15596;DHT22;7898;48.658;9.068;2022-10-17T08:43:37;23.80;99.90
15596;DHT22;7898;48.658;9.068;2022-10-17T08:46:10;24.00;99.90
15596;DHT22;7898;48.658;9.068;2022-10-17T08:48:40;24.10;99.90
15596;DHT22;7898;48.658;9.068;2022-10-17T08:51:12;24.80;99.90
15596;DHT22;7898;48.658;9.068;2022-10-17T08:53:44;25.50;99.90
15596;DHT22;7898;48.658;9.068;2022-10-17T08:56:17;25.30;99.90
15596;DHT22;7898;48.658;9.068;2022-10-17T08:58:45;25.80;99.90
15596;DHT22;7898;48.658;9.068;2022-10-17T09:01:30;25.70;99.90
15596;DHT22;7898;48.658;9.068;2022-10-17T09:07:03;24.70;99.90
15596;DHT22;7898;48.658;9.068;2022-10-17T09:09:37;24.50;99.90
15596;DHT22;7898;48.658;9.068;2022-10-17T09:12:16;24.50;99.90
15596;DHT22;7898;48.658;9.068;2022-10-17T09:14:55;24.70;99.90
15596;DHT22;7898;48.658;9.068;2022-10-17T09:17:34;25.00;99.90
15596;DHT22;7898;48.658;9.068;2022-10-17T09:20:08;25.20;99.90
15596;DHT22;7898;48.658;9.068;2022-10-17T09:22:40;25.60;99.90
15596;DHT22;7898;48.658;9.068;2022-10-17T09:25:11;26.10;99.90
15596;DHT22;7898;48.658;9.068;2022-10-17T09:27:41;26.20;99.90
15596;DHT22;7898;48.658;9.068;2022-10-17T09:30:24;26.00;99.90
15596;DHT22;7898;48.658;9.068;2022-10-17T09:32:55;25.50;99.90
15596;DHT22;7898;48.658;9.068;2022-10-17T09:35:22;25.50;99.90
15596;DHT22;7898;48.658;9.068;2022-10-17T09:37:50;25.10;99.90
15596;DHT22;7898;48.658;9.068;2022-10-17T09:40:20;24.60;99.90
15596;DHT22;7898;48.658;9.068;2022-10-17T09:42:49;25.00;99.90
15596;DHT22;7898;48.658;9.068;2022-10-17T09:45:18;24.90;99.90
15596;DHT22;7898;48.658;9.068;2022-10-17T09:47:56;24.80;99.90
15596;DHT22;7898;48.658;9.068;2022-10-17T09:50:27;24.50;99.90
15596;DHT22;7898;48.658;9.068;2022-10-17T09:52:56;24.20;99.90
15596;DHT22;7898;48.658;9.068;2022-10-17T09:55:32;24.10;99.90
15596;DHT22;7898;48.658;9.068;2022-10-17T09:58:08;24.10;99.90
15596;DHT22;7898;48.658;9.068;2022-10-17T10:00:37;24.20;99.90
15596;DHT22;7898;48.658;9.068;2022-10-17T10:03:13;24.30;99.90
15596;DHT22;7898;48.658;9.068;2022-10-17T10:05:41;24.30;99.90
15596;DHT22;7898;48.658;9.068;2022-10-17T10:08:14;24.10;99.90
15596;DHT22;7898;48.658;9.068;2022-10-17T10:10:42;24.00;99.90
15596;DHT22;7898;48.658;9.068;2022-10-17T10:13:17;23.80;99.90
15596;DHT22;7898;48.658;9.068;2022-10-17T10:15:47;23.60;99.90
15596;DHT22;7898;48.658;9.068;2022-10-17T10:18:34;23.50;99.90
15596;DHT22;7898;48.658;9.068;2022-10-17T10:21:04;23.50;99.90
15596;DHT22;7898;48.658;9.068;2022-10-17T10:23:39;23.60;99.90
15596;DHT22;7898;48.658;9.068;2022-10-17T10:26:20;23.80;99.90
15596;DHT22;7898;48.658;9.068;2022-10-17T10:28:54;24.00;99.90
15596;DHT22;7898;48.658;9.068;2022-10-17T10:31:30;24.00;99.90
15596;DHT22;7898;48.658;9.068;2022-10-17T10:34:01;24.00;99.90
15596;DHT22;7898;48.658;9.068;2022-10-17T10:36:50;24.00;99.90
15596;DHT22;7898;48.658;9.068;2022-10-17T10:39:36;24.00;99.90
15596;DHT22;7898;48.658;9.068;2022-10-17T10:42:16;24.10;99.90
15596;DHT22;7898;48.658;9.068;2022-10-17T10:44:44;24.10;99.90
15596;DHT22;7898;48.658;9.068;2022-10-17T10:47:19;24.30;99.90
15596;DHT22;7898;48.658;9.068;2022-10-17T10:49:50;24.30;99.90
15596;DHT22;7898;48.658;9.068;2022-10-17T10:52:26;24.30;99.90
15596;DHT22;7898;48.658;9.068;2022-10-17T10:55:02;24.40;99.90
15596;DHT22;7898;48.658;9.068;2022-10-17T10:57:32;24.50;99.90
15596;DHT22;7898;48.658;9.068;2022-10-17T11:00:05;24.50;99.90
15596;DHT22;7898;48.658;9.068;2022-10-17T11:02:42;24.40;99.90
15596;DHT22;7898;48.658;9.068;2022-10-17T11:05:15;23.90;99.90
15596;DHT22;7898;48.658;9.068;2022-10-17T11:07:49;24.30;99.90
15596;DHT22;7898;48.658;9.068;2022-10-17T11:10:22;24.50;99.90
15596;DHT22;7898;48.658;9.068;2022-10-17T11:12:53;24.60;99.90
15596;DHT22;7898;48.658;9.068;2022-10-17T11:15:26;24.70;99.90
15596;DHT22;7898;48.658;9.068;2022-10-17T11:17:59;24.60;99.90
15596;DHT22;7898;48.658;9.068;2022-10-17T11:20:39;24.80;99.90
15596;DHT22;7898;48.658;9.068;2022-10-17T11:23:15;25.00;99.90
15596;DHT22;7898;48.658;9.068;2022-10-17T11:25:47;25.00;99.90
15596;DHT22;7898;48.658;9.068;2022-10-17T11:28:17;25.00;99.90
15596;DHT22;7898;48.658;9.068;2022-10-17T11:30:49;25.10;99.90
15596;DHT22;7898;48.658;9.068;2022-10-17T11:33:23;25.20;99.90
15596;DHT22;7898;48.658;9.068;2022-10-17T11:35:56;25.20;99.90
15596;DHT22;7898;48.658;9.068;2022-10-17T11:38:33;25.20;99.90
15596;DHT22;7898;48.658;9.068;2022-10-17T11:41:03;25.20;99.90
15596;DHT22;7898;48.658;9.068;2022-10-17T11:43:34;24.30;99.90
15596;DHT22;7898;48.658;9.068;2022-10-17T11:46:10;25.40;99.90
15596;DHT22;7898;48.658;9.068;2022-10-17T11:48:41;25.50;99.90
15596;DHT22;7898;48.658;9.068;2022-10-17T11:51:13;25.50;99.90
15596;DHT22;7898;48.658;9.068;2022-10-17T11:53:55;25.50;99.90
15596;DHT22;7898;48.658;9.068;2022-10-17T11:56:35;25.50;99.90
15596;DHT22;7898;48.658;9.068;2022-10-17T11:59:17;25.40;99.90
15596;DHT22;7898;48.658;9.068;2022-10-17T12:01:53;25.40;99.90
15596;DHT22;7898;48.658;9.068;2022-10-17T12:04:41;25.60;99.90
15596;DHT22;7898;48.658;9.068;2022-10-17T12:07:18;25.60;99.90
15596;DHT22;7898;48.658;9.068;2022-10-17T12:09:50;25.80;99.90
15596;DHT22;7898;48.658;9.068;2022-10-17T12:12:26;25.80;99.90
15596;DHT22;7898;48.658;9.068;2022-10-17T12:14:54;25.80;99.90
15596;DHT22;7898;48.658;9.068;2022-10-17T12:17:42;25.90;99.90
15596;DHT22;7898;48.658;9.068;2022-10-17T12:20:25;26.00;99.90
15596;DHT22;7898;48.658;9.068;2022-10-17T12:22:55;26.10;99.90
15596;DHT22;7898;48.658;9.068;2022-10-17T12:25:25;26.10;99.90
15596;DHT22;7898;48.658;9.068;2022-10-17T12:28:13;26.10;99.90
15596;DHT22;7898;48.658;9.068;2022-10-17T12:30:52;26.10;99.90
15596;DHT22;7898;48.658;9.068;2022-10-17T12:33:21;26.10;99.90
15596;DHT22;7898;48.658;9.068;2022-10-17T12:42:48;26.30;99.90
15596;DHT22;7898;48.658;9.068;2022-10-17T12:45:47;26.10;99.90
15596;DHT22;7898;48.658;9.068;2022-10-17T12:51:15;26.80;99.90
15596;DHT22;7898;48.658;9.068;2022-10-17T12:53:48;26.90;99.90
15596;DHT22;7898;48.658;9.068;2022-10-17T12:56:20;27.10;99.90
15596;DHT22;7898;48.658;9.068;2022-10-17T12:58:49;26.90;99.90
15596;DHT22;7898;48.658;9.068;2022-10-17T13:01:24;27.00;99.90
15596;DHT22;7898;48.658;9.068;2022-10-17T13:03:53;27.00;99.90
15596;DHT22;7898;48.658;9.068;2022-10-17T13:06:22;27.10;99.90
15596;DHT22;7898;48.658;9.068;2022-10-17T13:08:57;27.10;99.90
15596;DHT22;7898;48.658;9.068;2022-10-17T13:11:28;27.20;99.90
15596;DHT22;7898;48.658;9.068;2022-10-17T13:13:58;27.50;99.90
15596;DHT22;7898;48.658;9.068;2022-10-17T13:16:30;27.70;99.90
15596;DHT22;7898;48.658;9.068;2022-10-17T13:18:58;27.80;99.90
15596;DHT22;7898;48.658;9.068;2022-10-17T13:21:26;27.90;99.90
15596;DHT22;7898;48.658;9.068;2022-10-17T13:23:53;28.00;99.90
15596;DHT22;7898;48.658;9.068;2022-10-17T13:26:22;28.30;99.90
15596;DHT22;7898;48.658;9.068;2022-10-17T13:29:05;28.50;99.90
15596;DHT22;7898;48.658;9.068;2022-10-17T13:31:34;28.60;99.80
15596;DHT22;7898;48.658;9.068;2022-10-17T13:34:02;28.70;99.90
15596;DHT22;7898;48.658;9.068;2022-10-17T13:36:31;28.90;99.80
15596;DHT22;7898;48.658;9.068;2022-10-17T13:39:05;28.90;99.30
15596;DHT22;7898;48.658;9.068;2022-10-17T13:41:33;29.00;99.50
15596;DHT22;7898;48.658;9.068;2022-10-17T13:44:06;29.10;99.10
15596;DHT22;7898;48.658;9.068;2022-10-17T13:46:38;29.10;99.70
15596;DHT22;7898;48.658;9.068;2022-10-17T13:49:14;29.10;98.70
15596;DHT22;7898;48.658;9.068;2022-10-17T13:51:43;29.00;99.50
15596;DHT22;7898;48.658;9.068;2022-10-17T13:54:24;29.30;99.60
15596;DHT22;7898;48.658;9.068;2022-10-17T13:56:58;29.80;98.60
15596;DHT22;7898;48.658;9.068;2022-10-17T13:59:31;30.20;97.80
15596;DHT22;7898;48.658;9.068;2022-10-17T14:02:00;30.30;98.30
15596;DHT22;7898;48.658;9.068;2022-10-17T14:04:27;30.50;97.90
15596;DHT22;7898;48.658;9.068;2022-10-17T14:06:54;30.90;97.90
15596;DHT22;7898;48.658;9.068;2022-10-17T14:09:26;31.10;97.40
15596;DHT22;7898;48.658;9.068;2022-10-17T14:12:03;31.60;97.00
15596;DHT22;7898;48.658;9.068;2022-10-17T14:14:34;31.90;95.50
15596;DHT22;7898;48.658;9.068;2022-10-17T14:17:01;31.70;95.90
15596;DHT22;7898;48.658;9.068;2022-10-17T14:19:33;31.60;95.10
15596;DHT22;7898;48.658;9.068;2022-10-17T14:22:15;31.70;95.50
15596;DHT22;7898;48.658;9.068;2022-10-17T14:24:44;31.80;95.90
15596;DHT22;7898;48.658;9.068;2022-10-17T14:27:27;32.00;94.80
15596;DHT22;7898;48.658;9.068;2022-10-17T14:29:57;32.30;94.70
15596;DHT22;7898;48.658;9.068;2022-10-17T14:32:28;32.50;94.00
15596;DHT22;7898;48.658;9.068;2022-10-17T14:34:58;32.40;93.60
15596;DHT22;7898;48.658;9.068;2022-10-17T14:37:33;32.40;93.60
15596;DHT22;7898;48.658;9.068;2022-10-17T14:40:02;32.40;93.90
15596;DHT22;7898;48.658;9.068;2022-10-17T14:42:38;32.60;93.20
15596;DHT22;7898;48.658;9.068;2022-10-17T14:45:11;32.60;93.90
15596;DHT22;7898;48.658;9.068;2022-10-17T14:47:39;32.60;93.00
15596;DHT22;7898;48.658;9.068;2022-10-17T14:50:20;32.60;92.80
15596;DHT22;7898;48.658;9.068;2022-10-17T14:52:58;32.30;92.70
15596;DHT22;7898;48.658;9.068;2022-10-17T14:55:29;32.30;93.20
15596;DHT22;7898;48.658;9.068;2022-10-17T14:57:56;32.00;93.30
15596;DHT22;7898;48.658;9.068;2022-10-17T15:00:26;32.10;93.90
15596;DHT22;7898;48.658;9.068;2022-10-17T15:02:54;31.80;93.40
15596;DHT22;7898;48.658;9.068;2022-10-17T15:05:21;31.10;93.50
15596;DHT22;7898;48.658;9.068;2022-10-17T15:07:49;30.40;94.20
15596;DHT22;7898;48.658;9.068;2022-10-17T15:10:30;29.50;95.20
15596;DHT22;7898;48.658;9.068;2022-10-17T15:12:58;28.70;96.80
15596;DHT22;7898;48.658;9.068;2022-10-17T15:15:28;27.90;97.90
15596;DHT22;7898;48.658;9.068;2022-10-17T15:17:55;27.30;98.30
15596;DHT22;7898;48.658;9.068;2022-10-17T15:20:24;26.70;98.80
15596;DHT22;7898;48.658;9.068;2022-10-17T15:22:52;26.10;99.60
15596;DHT22;7898;48.658;9.068;2022-10-17T15:25:20;25.70;99.90
15596;DHT22;7898;48.658;9.068;2022-10-17T15:27:47;25.40;99.90
15596;DHT22;7898;48.658;9.068;2022-10-17T15:30:19;25.10;99.90
15596;DHT22;7898;48.658;9.068;2022-10-17T15:32:49;24.80;99.90
15596;DHT22;7898;48.658;9.068;2022-10-17T15:35:16;24.60;99.90
15596;DHT22;7898;48.658;9.068;2022-10-17T15:37:44;23.90;99.90
15596;DHT22;7898;48.658;9.068;2022-10-17T15:40:14;24.30;99.90
15596;DHT22;7898;48.658;9.068;2022-10-17T15:42:41;24.10;99.90
15596;DHT22;7898;48.658;9.068;2022-10-17T15:45:09;24.00;99.90
15596;DHT22;7898;48.658;9.068;2022-10-17T15:47:37;23.90;99.90
15596;DHT22;7898;48.658;9.068;2022-10-17T15:50:06;23.80;99.90
15596;DHT22;7898;48.658;9.068;2022-10-17T15:52:34;23.60;99.90
15596;DHT22;7898;48.658;9.068;2022-10-17T15:55:01;23.50;99.90
15596;DHT22;7898;48.658;9.068;2022-10-17T15:57:29;23.40;99.90
15596;DHT22;7898;48.658;9.068;2022-10-17T15:59:58;23.20;99.90
15596;DHT22;7898;48.658;9.068;2022-10-17T16:02:26;23.00;99.90
15596;DHT22;7898;48.658;9.068;2022-10-17T16:04:53;22.80;99.90
15596;DHT22;7898;48.658;9.068;2022-10-17T16:07:21;22.60;99.90
15596;DHT22;7898;48.658;9.068;2022-10-17T16:09:48;22.40;99.90
15596;DHT22;7898;48.658;9.068;2022-10-17T16:12:17;22.30;99.90
15596;DHT22;7898;48.658;9.068;2022-10-17T16:14:46;22.10;99.90
15596;DHT22;7898;48.658;9.068;2022-10-17T16:17:14;21.80;99.90
15596;DHT22;7898;48.658;9.068;2022-10-17T16:19:42;21.60;99.90
15596;DHT22;7898;48.658;9.068;2022-10-17T16:22:17;21.30;99.90
15596;DHT22;7898;48.658;9.068;2022-10-17T16:24:47;21.10;99.90
15596;DHT22;7898;48.658;9.068;2022-10-17T16:27:14;20.90;99.90
15596;DHT22;7898;48.658;9.068;2022-10-17T16:29:40;20.70;99.90
15596;DHT22;7898;48.658;9.068;2022-10-17T16:32:08;20.50;99.90